Time;durP1;ratioP1;P1;durP2;ratioP2;P2;SDS_P1;SDS_P2;PMS_P1;PMS_P2;Temp;Humidity;BMP_temperature;BMP_pressure;BME280_temperature;BME280_humidity;BME280_pressure;Samples;Min_cycle;Max_cycle;Signal;HPM_P1;HPM_P2
2022/03/27 00:02:08;;;;;;;5.65;4.38;;;;;;;9.41;87.92;103399.34;5026368;28;20026;-57
2022/03/27 00:04:34;;;;;;;5.10;4.60;;;;;;;9.29;88.50;103403.59;5025849;28;20048;-58
2022/03/27 00:06:59;;;;;;;6.05;4.85;;;;;;;9.35;88.44;103402.78;5026808;28;20053;-54
2022/03/27 00:09:24;;;;;;;7.22;4.68;;;;;;;9.34;88.19;103386.09;5024617;28;20428;-59
2022/03/27 00:11:50;;;;;;;7.07;4.70;;;;;;;9.42;88.31;103393.22;5026509;28;20385;-61
2022/03/27 00:14:15;;;;;;;6.03;4.82;;;;;;;9.44;88.20;103387.09;5024289;28;20021;-59
2022/03/27 00:16:41;;;;;;;5.72;4.85;;;;;;;9.33;88.14;103397.50;5025859;28;20038;-58
2022/03/27 00:19:06;;;;;;;6.82;5.20;;;;;;;9.30;88.29;103394.81;5025462;28;20021;-58
2022/03/27 00:21:32;;;;;;;7.07;5.55;;;;;;;9.27;88.49;103389.53;5026306;28;20162;-59
2022/03/27 00:23:57;;;;;;;9.80;5.70;;;;;;;9.18;88.99;103384.16;5025100;28;20025;-58
2022/03/27 00:26:22;;;;;;;6.00;5.03;;;;;;;9.13;88.85;103386.72;5024804;28;20028;-58
2022/03/27 00:28:48;;;;;;;7.32;5.80;;;;;;;9.03;88.91;103388.34;5024639;28;20448;-57
2022/03/27 00:31:14;;;;;;;10.73;6.85;;;;;;;8.98;89.85;103390.03;5025548;28;20613;-56
2022/03/27 00:33:41;;;;;;;7.07;6.38;;;;;;;8.99;89.60;103389.16;5025582;28;20301;-58
2022/03/27 00:36:10;;;;;;;11.13;7.13;;;;;;;8.99;89.79;103389.16;5024013;28;20334;-57
2022/03/27 00:38:36;;;;;;;9.03;6.60;;;;;;;9.07;89.48;103392.78;5026303;28;20107;-57
2022/03/27 00:41:01;;;;;;;14.25;8.55;;;;;;;8.97;89.71;103397.03;5025084;28;20128;-56
2022/03/27 00:43:27;;;;;;;12.65;7.88;;;;;;;9.00;89.60;103390.06;5025662;28;20116;-57
2022/03/27 00:45:53;;;;;;;10.45;8.15;;;;;;;8.96;89.81;103397.00;5024123;28;20065;-57
2022/03/27 00:48:20;;;;;;;12.63;8.27;;;;;;;8.77;90.00;103402.00;5008098;28;20480;-55
2022/03/27 00:50:47;;;;;;;11.75;9.07;;;;;;;8.80;90.21;103403.78;5024306;28;20480;-60
2022/03/27 00:53:13;;;;;;;15.05;8.85;;;;;;;8.87;89.86;103395.13;5025931;28;20017;-57
2022/03/27 00:55:38;;;;;;;11.82;7.93;;;;;;;8.76;90.10;103394.97;5024375;28;20030;-61
2022/03/27 00:58:04;;;;;;;11.57;8.40;;;;;;;8.56;90.38;103394.66;5026043;28;20095;-57
2022/03/27 01:00:39;;;;;;;8.95;7.80;;;;;;;8.45;90.61;103394.44;5023257;28;20076;-59
2022/03/27 01:03:11;;;;;;;11.45;7.90;;;;;;;8.42;90.71;103394.41;5026342;28;20049;-58
2022/03/27 01:05:37;;;;;;;10.13;8.00;;;;;;;8.42;90.49;103391.78;5006166;28;20116;-56
2022/03/27 01:08:05;;;;;;;9.48;6.75;;;;;;;8.57;89.92;103397.31;5008580;28;20120;-57
2022/03/27 01:10:31;;;;;;;9.85;7.28;;;;;;;8.56;89.72;103395.56;5212188;22;20533;-57
2022/03/27 01:12:57;;;;;;;11.73;8.07;;;;;;;8.64;89.84;103392.16;5027587;28;20024;-56
2022/03/27 01:15:44;;;;;;;11.27;8.50;;;;;;;8.59;89.61;103389.47;5044781;28;20033;-56
2022/03/27 01:18:10;;;;;;;13.95;8.75;;;;;;;8.59;89.42;103379.84;5045460;28;20029;-55
2022/03/27 01:20:36;;;;;;;12.80;8.40;;;;;;;8.64;89.38;103387.78;5046037;28;20032;-56
2022/03/27 01:23:07;;;;;;;13.85;10.90;;;;;;;8.48;90.07;103386.63;5044956;28;20039;-59
2022/03/27 01:25:33;;;;;;;14.55;10.48;;;;;;;8.47;90.19;103380.50;5045906;28;20498;-59
2022/03/27 01:27:58;;;;;;;16.77;10.80;;;;;;;8.48;90.34;103389.25;5044850;28;20029;-58
2022/03/27 01:30:23;;;;;;;15.50;11.27;;;;;;;8.46;90.27;103383.09;5044666;28;20104;-58
2022/03/27 01:32:51;;;;;;;13.70;9.43;;;;;;;8.55;89.96;103391.16;5044835;28;20021;-57
2022/03/27 01:35:18;;;;;;;12.45;9.23;;;;;;;8.59;89.43;103390.34;5045133;28;20029;-56
2022/03/27 01:37:43;;;;;;;11.30;7.93;;;;;;;8.56;89.14;103385.06;5043981;28;20047;-57
2022/03/27 01:40:09;;;;;;;11.07;7.72;;;;;;;8.57;89.28;103386.81;5045261;28;20025;-57
2022/03/27 01:42:34;;;;;;;12.40;8.40;;;;;;;8.54;89.09;103389.38;5044783;28;20025;-57
2022/03/27 01:44:59;;;;;;;12.48;9.45;;;;;;;8.50;89.07;103378.75;5045095;28;20028;-57
2022/03/27 01:47:25;;;;;;;16.33;10.63;;;;;;;8.39;89.21;103370.69;5043859;28;20029;-58
2022/03/27 01:49:50;;;;;;;13.25;9.57;;;;;;;8.25;89.68;103373.97;5045541;28;20036;-59
2022/03/27 01:52:15;;;;;;;14.38;9.40;;;;;;;8.25;90.34;103375.75;5042958;28;20013;-56
2022/03/27 01:54:41;;;;;;;15.75;10.50;;;;;;;8.20;90.26;103379.19;5045673;28;20017;-57
2022/03/27 01:57:06;;;;;;;14.90;9.93;;;;;;;8.15;90.38;103377.31;5045091;28;20032;-57
2022/03/27 01:59:33;;;;;;;15.13;10.40;;;;;;;8.04;90.72;103380.63;5044444;28;20032;-55
2022/03/27 02:01:59;;;;;;;14.13;10.00;;;;;;;8.03;90.85;103376.25;5044926;28;20395;-57
2022/03/27 02:04:24;;;;;;;13.07;9.40;;;;;;;8.12;90.94;103379.91;5044168;28;20031;-57
2022/03/27 02:06:50;;;;;;;12.70;9.45;;;;;;;8.09;90.73;103373.75;5044787;28;20017;-58
2022/03/27 02:09:16;;;;;;;12.98;9.48;;;;;;;8.08;90.65;103377.22;5044119;28;20149;-56
2022/03/27 02:11:42;;;;;;;13.75;8.98;;;;;;;7.97;90.84;103370.88;5045566;28;20240;-56
2022/03/27 02:14:08;;;;;;;14.95;9.93;;;;;;;7.99;90.92;103377.06;5044043;28;20039;-57
2022/03/27 02:16:35;;;;;;;14.18;9.75;;;;;;;8.05;90.47;103377.19;5044869;28;20033;-56
2022/03/27 02:19:00;;;;;;;13.90;10.23;;;;;;;8.05;90.12;103376.28;5043485;28;20029;-56
2022/03/27 02:21:25;;;;;;;12.25;9.55;;;;;;;8.00;90.58;103386.69;5045364;28;20075;-58
2022/03/27 02:23:51;;;;;;;11.95;8.60;;;;;;;7.92;90.58;103378.69;5043302;28;20071;-55
2022/03/27 02:26:17;;;;;;;12.52;8.88;;;;;;;7.88;90.39;103375.97;5045643;28;20053;-59
2022/03/27 02:28:42;;;;;;;12.13;8.70;;;;;;;7.77;90.65;103375.78;5044754;28;20524;-56
2022/03/27 02:31:08;;;;;;;12.02;8.52;;;;;;;7.80;90.82;103371.47;5042423;28;20087;-56
2022/03/27 02:33:35;;;;;;;11.90;9.23;;;;;;;7.66;91.00;103365.06;5045186;28;20029;-58
2022/03/27 02:36:01;;;;;;;13.25;9.75;;;;;;;7.59;91.60;103362.31;5043644;28;20100;-55
2022/03/27 02:38:26;;;;;;;13.73;9.30;;;;;;;7.70;91.64;103359.03;5044845;28;20733;-57
2022/03/27 02:40:51;;;;;;;15.73;10.18;;;;;;;7.54;91.80;103358.75;5025755;28;20070;-55
2022/03/27 02:43:17;;;;;;;15.15;9.60;;;;;;;7.57;91.79;103360.53;5044947;28;20029;-58
2022/03/27 02:45:42;;;;;;;17.33;10.52;;;;;;;7.50;92.05;103351.69;5046605;28;20021;-58
2022/03/27 02:48:08;;;;;;;16.73;11.23;;;;;;;7.52;92.50;103363.06;5048634;28;20028;-58
2022/03/27 02:50:37;;;;;;;18.63;11.68;;;;;;;7.50;92.44;103359.53;5047490;28;20107;-56
2022/03/27 02:53:03;;;;;;;20.55;12.88;;;;;;;7.57;92.30;103357.91;5030112;28;20116;-56
2022/03/27 02:55:28;;;;;;;16.27;10.98;;;;;;;7.69;92.36;103360.78;5046558;28;20139;-59
2022/03/27 02:57:54;;;;;;;22.92;14.10;;;;;;;7.65;91.96;103351.06;5047816;28;20047;-54
2022/03/27 03:00:21;;;;;;;21.42;14.23;;;;;;;7.70;91.91;103361.66;5046205;28;20049;-57
2022/03/27 03:02:46;;;;;;;20.33;13.73;;;;;;;7.66;92.05;103357.19;5047325;28;20096;-58
2022/03/27 03:05:12;;;;;;;19.77;13.73;;;;;;;7.59;92.09;103354.47;5047179;28;20124;-57
2022/03/27 03:07:41;;;;;;;20.40;14.13;;;;;;;7.68;91.84;103345.88;5030144;28;20025;-57
2022/03/27 03:10:07;;;;;;;21.80;12.95;;;;;;;7.66;91.68;103351.94;5042204;28;20402;-54
2022/03/27 03:12:32;;;;;;;15.80;11.48;;;;;;;7.54;91.21;103349.97;5028313;28;20056;-57
2022/03/27 03:14:58;;;;;;;14.50;9.68;;;;;;;7.54;90.84;103353.50;5029227;28;20052;-56
2022/03/27 03:17:23;;;;;;;14.65;10.07;;;;;;;7.65;91.24;103342.31;5030151;28;20025;-57
2022/03/27 03:19:49;;;;;;;13.32;9.43;;;;;;;7.65;90.48;103347.56;5047302;28;20474;-55
2022/03/27 03:22:14;;;;;;;13.15;10.30;;;;;;;7.60;90.19;103347.47;5047537;28;20017;-59
2022/03/27 03:24:40;;;;;;;16.42;11.23;;;;;;;7.61;90.08;103349.25;5046174;28;20106;-57
2022/03/27 03:27:05;;;;;;;16.48;11.43;;;;;;;7.53;90.66;103349.09;5047755;28;20053;-59
2022/03/27 03:29:31;;;;;;;16.00;10.80;;;;;;;7.55;90.42;103352.63;5045953;28;20025;-56
2022/03/27 03:31:56;;;;;;;15.43;10.63;;;;;;;7.57;90.53;103348.31;5047527;28;20140;-56
2022/03/27 03:34:21;;;;;;;14.85;10.57;;;;;;;7.65;90.26;103347.56;5046714;28;20104;-58
2022/03/27 03:36:47;;;;;;;16.33;11.02;;;;;;;7.61;90.38;103351.84;5046924;28;20021;-57
2022/03/27 03:39:13;;;;;;;15.25;11.88;;;;;;;7.53;90.64;103343.84;5046594;28;20029;-57
2022/03/27 03:41:38;;;;;;;19.42;11.52;;;;;;;7.54;90.37;103348.25;5046263;28;20040;-58
2022/03/27 03:44:04;;;;;;;17.83;11.52;;;;;;;7.56;90.48;103351.78;5046859;28;20479;-59
2022/03/27 03:46:29;;;;;;;16.48;11.13;;;;;;;7.49;90.89;103349.03;5045814;28;20392;-59
2022/03/27 03:48:54;;;;;;;19.70;12.52;;;;;;;7.56;91.13;103350.91;5047117;28;20472;-58
2022/03/27 03:51:20;;;;;;;15.77;10.75;;;;;;;7.56;90.85;103341.28;5046020;28;20047;-57
2022/03/27 03:53:46;;;;;;;16.40;11.43;;;;;;;7.49;90.85;103341.16;5047195;28;20037;-58
2022/03/27 03:56:11;;;;;;;15.95;10.70;;;;;;;7.46;90.76;103348.09;5044917;28;20494;-57
2022/03/27 03:58:37;;;;;;;19.20;11.40;;;;;;;7.45;90.62;103333.22;5047014;28;20534;-59
2022/03/27 04:01:03;;;;;;;16.38;10.93;;;;;;;7.33;90.62;103340.84;5045661;28;20037;-56
2022/03/27 04:03:29;;;;;;;16.63;11.63;;;;;;;7.39;90.74;103337.44;5046685;28;20055;-58
2022/03/27 04:05:54;;;;;;;18.20;12.13;;;;;;;7.38;90.79;103340.94;5045547;28;20033;-57
2022/03/27 04:08:19;;;;;;;17.60;11.95;;;;;;;7.40;90.91;103340.09;5047115;28;20040;-56
2022/03/27 04:10:46;;;;;;;16.85;11.38;;;;;;;7.44;90.42;103339.28;5045998;28;20073;-57
2022/03/27 04:13:11;;;;;;;15.40;11.40;;;;;;;7.40;90.25;103337.47;5045181;28;20044;-56
2022/03/27 04:15:38;;;;;;;16.88;11.38;;;;;;;7.37;90.03;103336.56;5045601;28;20025;-57
2022/03/27 04:18:04;;;;;;;15.98;11.23;;;;;;;7.41;89.94;103339.22;5046584;28;20032;-57
2022/03/27 04:20:29;;;;;;;18.40;11.40;;;;;;;7.37;89.99;103340.03;5045644;28;20036;-56
2022/03/27 04:22:55;;;;;;;17.98;11.82;;;;;;;7.29;89.64;103347.75;5046304;28;20029;-57
2022/03/27 04:25:20;;;;;;;13.32;9.50;;;;;;;7.39;89.55;103353.19;5045530;28;20040;-57
2022/03/27 04:27:46;;;;;;;13.52;9.32;;;;;;;7.48;89.23;103356.00;5046072;28;20033;-58
2022/03/27 04:30:12;;;;;;;15.95;10.38;;;;;;;7.30;88.79;103348.63;5044853;28;20105;-57
2022/03/27 04:32:37;;;;;;;12.85;9.30;;;;;;;7.19;89.28;103349.31;5028254;28;20033;-57
2022/03/27 04:35:05;;;;;;;16.08;10.75;;;;;;;7.14;89.18;103350.06;5046617;28;20503;-58
2022/03/27 04:37:30;;;;;;;14.25;9.63;;;;;;;7.03;88.90;103357.69;5045285;28;20052;-59
2022/03/27 04:40:02;;;;;;;13.27;10.43;;;;;;;6.98;89.27;103359.34;5046281;28;20064;-58
2022/03/27 04:42:28;;;;;;;14.88;10.60;;;;;;;7.00;89.29;103353.28;5045052;28;20100;-59
2022/03/27 04:44:53;;;;;;;15.52;10.98;;;;;;;6.97;89.36;103361.06;5045334;28;20112;-57
2022/03/27 04:47:19;;;;;;;15.25;11.20;;;;;;;7.00;89.22;103360.25;5045112;28;20041;-58
2022/03/27 04:49:44;;;;;;;15.32;10.55;;;;;;;6.98;89.57;103361.97;5045723;28;20016;-57
2022/03/27 04:52:10;;;;;;;13.55;10.52;;;;;;;7.04;89.36;103364.69;5044473;28;20033;-56
2022/03/27 04:54:35;;;;;;;17.08;11.30;;;;;;;7.16;88.91;103361.44;5046267;28;20025;-58
2022/03/27 04:57:01;;;;;;;14.73;11.32;;;;;;;7.08;88.84;103356.94;5044836;28;20029;-58
2022/03/27 04:59:26;;;;;;;16.10;11.25;;;;;;;6.99;89.02;103363.72;5045239;28;20079;-57
2022/03/27 05:01:51;;;;;;;19.20;11.77;;;;;;;6.89;89.30;103363.50;5044461;28;20431;-57
2022/03/27 05:04:17;;;;;;;14.13;10.68;;;;;;;6.97;89.21;103363.69;5045159;28;20033;-57
2022/03/27 05:06:43;;;;;;;15.02;10.20;;;;;;;6.99;88.79;103372.50;5043497;28;20029;-58
2022/03/27 05:09:08;;;;;;;15.98;11.20;;;;;;;7.02;88.70;103369.94;5044559;28;20044;-57
2022/03/27 05:11:33;;;;;;;17.85;12.20;;;;;;;6.99;89.12;103364.63;5026862;28;20044;-57
2022/03/27 05:13:58;;;;;;;17.52;11.80;;;;;;;7.00;89.08;103360.25;5044292;28;20039;-57
2022/03/27 05:16:24;;;;;;;17.75;12.60;;;;;;;7.04;88.91;103365.59;5043570;28;20076;-58
2022/03/27 05:18:49;;;;;;;15.75;10.90;;;;;;;7.05;88.85;103366.50;5045628;28;20104;-56
2022/03/27 05:21:18;;;;;;;13.98;10.60;;;;;;;7.00;88.91;103365.50;5045019;28;20041;-56
2022/03/27 05:23:43;;;;;;;14.73;10.70;;;;;;;7.00;88.54;103361.13;5045930;28;20028;-57
2022/03/27 05:26:09;;;;;;;17.13;11.15;;;;;;;6.93;88.51;103359.25;5045807;28;20395;-56
2022/03/27 05:28:34;;;;;;;17.33;11.93;;;;;;;6.91;88.92;103366.16;5045951;28;20079;-57
2022/03/27 05:31:08;;;;;;;16.77;11.77;;;;;;;6.86;88.94;103365.19;5045122;28;20033;-57
2022/03/27 05:33:37;;;;;;;15.40;11.48;;;;;;;6.87;88.93;103365.25;5046009;28;20450;-57
2022/03/27 05:36:10;;;;;;;13.65;10.52;;;;;;;6.83;88.75;103364.28;5045834;28;20567;-58
2022/03/27 05:38:39;;;;;;;16.55;11.40;;;;;;;6.77;88.70;103365.88;5028035;28;20429;-57
2022/03/27 05:41:05;;;;;;;14.07;10.50;;;;;;;6.83;88.90;103369.50;5045805;28;20348;-59
2022/03/27 05:43:31;;;;;;;15.23;10.82;;;;;;;6.80;88.58;103368.53;5043798;28;20029;-55
2022/03/27 05:45:56;;;;;;;14.40;10.55;;;;;;;6.87;88.57;103372.19;5042671;28;20082;-55
2022/03/27 05:48:21;;;;;;;15.25;11.40;;;;;;;6.89;88.58;103362.66;5045553;28;20037;-56
2022/03/27 05:50:47;;;;;;;14.77;10.73;;;;;;;6.94;88.41;103366.25;5046752;28;20047;-59
2022/03/27 05:53:13;;;;;;;14.15;10.00;;;;;;;7.05;87.99;103363.88;5045836;28;20177;-56
2022/03/27 05:55:38;;;;;;;15.50;10.98;;;;;;;6.86;88.05;103371.31;5044905;28;20013;-57
2022/03/27 05:58:03;;;;;;;14.52;10.70;;;;;;;6.99;88.04;103369.88;5046272;28;20017;-56
2022/03/27 06:00:29;;;;;;;14.80;11.13;;;;;;;6.95;87.85;103368.91;5026460;28;20106;-57
2022/03/27 06:02:54;;;;;;;17.48;12.13;;;;;;;6.93;87.79;103367.09;5045239;28;20537;-57
2022/03/27 06:05:23;;;;;;;15.68;11.60;;;;;;;6.94;87.84;103366.25;5045231;28;20064;-57
2022/03/27 06:07:50;;;;;;;15.65;11.07;;;;;;;7.10;87.35;103377.06;5045170;28;20036;-56
2022/03/27 06:10:19;;;;;;;13.15;9.55;;;;;;;7.10;87.11;103377.06;5027512;28;20049;-57
2022/03/27 06:12:45;;;;;;;12.63;9.23;;;;;;;7.14;86.18;103378.91;5045239;28;20083;-59
2022/03/27 06:15:12;;;;;;;13.82;10.07;;;;;;;7.18;85.71;103388.59;5043903;28;20009;-56
2022/03/27 06:17:45;;;;;;;17.23;10.80;;;;;;;7.11;85.70;103381.47;5045427;28;20120;-57
2022/03/27 06:20:13;;;;;;;14.35;10.90;;;;;;;7.06;86.29;103379.63;5048309;28;20027;-57
2022/03/27 06:22:39;;;;;;;12.93;9.98;;;;;;;7.07;85.97;103385.75;5048687;28;20021;-57
2022/03/27 06:25:06;;;;;;;12.60;9.82;;;;;;;7.09;85.89;103376.19;5048524;28;20025;-58
2022/03/27 06:27:31;;;;;;;15.52;11.10;;;;;;;6.95;85.10;103381.09;5031467;28;20212;-57
2022/03/27 06:29:57;;;;;;;14.63;10.07;;;;;;;6.92;85.60;103379.31;5048033;28;20126;-56
2022/03/27 06:32:26;;;;;;;13.85;10.43;;;;;;;6.91;85.69;103381.91;5049147;28;20094;-59
2022/03/27 06:34:54;;;;;;;13.95;10.95;;;;;;;6.89;85.32;103388.88;5049086;28;20114;-55
2022/03/27 06:37:19;;;;;;;15.35;10.77;;;;;;;6.89;85.76;103387.09;5030850;28;20052;-58
2022/03/27 06:39:45;;;;;;;12.65;9.65;;;;;;;7.04;84.97;103389.19;5048324;28;20478;-57
2022/03/27 06:42:12;;;;;;;11.52;9.07;;;;;;;7.03;84.77;103390.03;5048653;28;20032;-57
2022/03/27 06:44:37;;;;;;;14.23;10.00;;;;;;;6.90;84.92;103382.75;5048254;28;20032;-59
2022/03/27 06:47:04;;;;;;;13.60;9.80;;;;;;;6.99;85.91;103387.31;5049134;28;20064;-59
2022/03/27 06:49:29;;;;;;;14.63;10.13;;;;;;;7.10;84.98;103384.94;5048470;28;20021;-56
2022/03/27 06:51:54;;;;;;;11.90;9.27;;;;;;;7.18;84.69;103394.75;5048891;28;20036;-59
2022/03/27 06:54:21;;;;;;;12.95;9.40;;;;;;;7.25;84.33;103384.41;5047717;28;20044;-57
2022/03/27 06:56:46;;;;;;;16.23;10.48;;;;;;;7.24;84.21;103386.13;5030224;28;20017;-57
2022/03/27 06:59:11;;;;;;;13.00;9.95;;;;;;;7.51;83.17;103384.91;5047732;28;20082;-58
2022/03/27 07:04:20;;;;;;;12.35;8.85;;;;;;;7.23;82.92;103379.13;5047934;28;20044;-58
2022/03/27 07:06:46;;;;;;;12.77;9.00;;;;;;;7.06;83.94;103382.25;5048478;28;20025;-59
2022/03/27 07:09:12;;;;;;;13.55;9.40;;;;;;;7.11;83.67;103384.09;5047521;28;20033;-62
2022/03/27 07:11:38;;;;;;;14.25;10.07;;;;;;;6.97;84.22;103389.91;5048416;28;20025;-57
2022/03/27 07:14:03;;;;;;;11.45;8.88;;;;;;;6.93;84.88;103383.69;5047285;28;20403;-63
2022/03/27 07:16:30;;;;;;;13.38;9.10;;;;;;;6.91;84.28;103382.78;5046240;28;20028;-57
2022/03/27 07:18:55;;;;;;;11.48;8.57;;;;;;;7.03;83.34;103381.28;5047462;28;20471;-65
2022/03/27 07:21:21;;;;;;;13.75;9.60;;;;;;;6.85;83.97;103382.66;5047230;28;20151;-58
2022/03/27 07:23:46;;;;;;;14.23;9.40;;;;;;;6.98;83.75;103383.81;5028733;28;20028;-59
2022/03/27 07:26:12;;;;;;;12.55;9.13;;;;;;;7.08;83.98;103385.78;5047021;28;20021;-62
2022/03/27 07:28:37;;;;;;;16.13;9.80;;;;;;;7.12;83.91;103384.13;5046638;28;20025;-59
2022/03/27 07:31:03;;;;;;;14.80;10.05;;;;;;;6.97;84.17;103382.03;5047207;28;20386;-63
2022/03/27 07:33:28;;;;;;;18.48;9.32;;;;;;;7.08;83.70;103377.91;5047403;28;20459;-58
2022/03/27 07:35:54;;;;;;;13.43;9.60;;;;;;;7.23;82.92;103373.88;5047258;28;20522;-62
2022/03/27 07:38:19;;;;;;;11.50;8.60;;;;;;;7.28;81.59;103382.69;5046767;28;20025;-61
2022/03/27 07:40:45;;;;;;;11.38;8.00;;;;;;;7.36;80.82;103374.09;5046821;28;20028;-56
2022/03/27 07:43:10;;;;;;;9.73;7.45;;;;;;;7.21;80.34;103380.81;5028045;28;20386;-56
2022/03/27 07:45:37;;;;;;;8.90;6.68;;;;;;;7.20;78.48;103373.81;5046516;28;20467;-57
2022/03/27 07:48:03;;;;;;;11.55;6.85;;;;;;;7.15;78.05;103376.31;5047039;28;20395;-57
2022/03/27 07:50:30;;;;;;;8.15;6.35;;;;;;;7.11;77.86;103378.84;5046497;28;20757;-64
2022/03/27 07:52:56;;;;;;;7.70;6.07;;;;;;;7.24;75.95;103383.50;5045858;28;20459;-60
2022/03/27 07:55:21;;;;;;;7.78;5.63;;;;;;;7.36;75.38;103374.09;5046548;28;20024;-64
2022/03/27 07:57:46;;;;;;;9.25;6.18;;;;;;;7.44;74.73;103383.91;5046672;28;20033;-62
2022/03/27 08:00:14;;;;;;;9.52;5.63;;;;;;;7.59;74.51;103388.56;5045553;28;20021;-61
2022/03/27 08:02:41;;;;;;;7.93;6.18;;;;;;;7.71;73.87;103384.44;5046530;28;20029;-61
2022/03/27 08:05:07;;;;;;;7.13;5.97;;;;;;;7.59;72.75;103383.31;5029000;28;20021;-60
2022/03/27 08:07:32;;;;;;;8.35;5.68;;;;;;;7.67;73.23;103382.59;5046707;28;20032;-61
2022/03/27 08:09:58;;;;;;;7.07;5.75;;;;;;;7.67;74.22;103393.06;5046234;28;20033;-61
2022/03/27 08:12:24;;;;;;;7.85;6.20;;;;;;;7.70;73.10;103391.41;5046218;28;20438;-61
2022/03/27 08:14:49;;;;;;;7.93;5.72;;;;;;;7.73;73.69;103390.56;5045598;28;20020;-63
2022/03/27 08:17:16;;;;;;;9.50;6.80;;;;;;;7.88;74.16;103392.59;5045825;28;20084;-60
2022/03/27 08:19:43;;;;;;;9.27;6.85;;;;;;;7.93;74.77;103397.94;5046172;28;20080;-61
2022/03/27 08:22:08;;;;;;;8.57;6.20;;;;;;;8.17;73.82;103394.00;5046519;28;20509;-61
2022/03/27 08:24:33;;;;;;;7.82;5.97;;;;;;;8.16;72.96;103393.09;5045357;28;20037;-60
2022/03/27 08:27:00;;;;;;;7.80;5.53;;;;;;;8.16;72.06;103393.09;5046580;28;20387;-62
2022/03/27 08:29:36;;;;;;;6.85;4.88;;;;;;;8.24;70.00;103397.63;5045345;28;20434;-63
2022/03/27 08:32:04;;;;;;;8.60;5.25;;;;;;;8.30;68.65;103389.81;5045975;28;20537;-62
2022/03/27 08:34:31;;;;;;;7.40;4.70;;;;;;;8.37;68.81;103399.56;5045288;28;20417;-63
2022/03/27 08:36:57;;;;;;;10.93;5.00;;;;;;;8.43;67.67;103388.31;5045651;28;20228;-62
2022/03/27 08:39:23;;;;;;;5.80;3.70;;;;;;;8.41;65.56;103387.38;5045435;28;20025;-62
2022/03/27 08:41:51;;;;;;;6.70;4.68;;;;;;;8.28;66.42;103389.81;5045474;28;20143;-63
2022/03/27 08:44:18;;;;;;;12.32;3.95;;;;;;;8.55;66.14;103399.03;5044420;28;20029;-61
2022/03/27 08:46:44;;;;;;;6.22;4.38;;;;;;;8.51;66.09;103398.91;5045578;28;20029;-60
2022/03/27 08:49:19;;;;;;;5.20;4.05;;;;;;;8.54;64.82;103389.38;5045493;28;20029;-61
2022/03/27 08:52:00;;;;;;;7.65;4.70;;;;;;;8.56;66.03;103392.94;5028041;28;20036;-62
2022/03/27 08:54:32;;;;;;;4.35;3.75;;;;;;;8.83;65.91;103385.44;5045771;28;20108;-56
2022/03/27 08:57:20;;;;;;;12.43;4.40;;;;;;;8.97;65.25;103391.75;5010328;28;20033;-54
2022/03/27 08:59:47;;;;;;;4.77;3.70;;;;;;;9.01;65.51;103378.66;4994685;28;20033;-56
2022/03/27 09:02:13;;;;;;;4.70;4.10;;;;;;;8.96;66.70;103391.75;5027436;28;20075;-55
2022/03/27 09:04:38;;;;;;;7.18;4.90;;;;;;;8.96;66.83;103386.47;5045090;28;20383;-56
2022/03/27 09:07:04;;;;;;;7.93;4.55;;;;;;;9.05;66.07;103383.09;5027531;28;20009;-55
2022/03/27 09:09:35;;;;;;;7.80;4.60;;;;;;;9.21;65.83;103384.16;5044578;28;20049;-55
2022/03/27 09:12:04;;;;;;;5.75;3.97;;;;;;;9.27;65.28;103388.66;5027095;28;20029;-56
2022/03/27 09:14:32;;;;;;;6.40;4.40;;;;;;;9.35;63.61;103381.72;5026188;28;20156;-57
2022/03/27 09:17:04;;;;;;;3.92;3.53;;;;;;;9.49;64.52;103374.00;5026805;28;20495;-54
2022/03/27 09:19:33;;;;;;;7.13;4.20;;;;;;;9.47;64.23;103381.00;5044691;28;20090;-54
2022/03/27 09:21:59;;;;;;;4.20;3.67;;;;;;;9.30;63.89;103372.91;5045609;28;20029;-58
2022/03/27 09:24:32;;;;;;;4.57;4.00;;;;;;;9.46;64.11;103379.22;5045230;28;21110;-56
2022/03/27 09:27:00;;;;;;;7.97;4.60;;;;;;;9.56;64.31;103370.56;5045482;28;20021;-59
2022/03/27 09:29:25;;;;;;;9.65;3.58;;;;;;;9.60;63.25;103375.00;5043334;28;20021;-56
2022/03/27 09:31:57;;;;;;;5.35;3.70;;;;;;;9.69;62.13;103366.31;5025123;28;20471;-59
2022/03/27 09:34:23;;;;;;;4.45;3.45;;;;;;;9.80;61.78;103374.34;5043582;28;20116;-57
2022/03/27 09:36:49;;;;;;;6.90;3.83;;;;;;;9.83;61.74;103374.38;5025739;28;20487;-56
2022/03/27 09:39:17;;;;;;;5.13;3.60;;;;;;;9.99;61.17;103374.50;5043939;28;20049;-57
2022/03/27 09:41:47;;;;;;;4.85;3.40;;;;;;;10.17;60.23;103372.94;5043822;28;20029;-59
2022/03/27 09:44:19;;;;;;;6.30;4.07;;;;;;;10.08;60.97;103374.59;5043352;28;20045;-57
2022/03/27 09:47:07;;;;;;;6.68;4.05;;;;;;;9.85;61.19;103372.63;5036467;28;20037;-58
2022/03/27 09:49:35;;;;;;;7.03;4.20;;;;;;;9.96;60.64;103369.19;5031000;28;20026;-57
2022/03/27 09:52:04;;;;;;;4.68;3.65;;;;;;;9.94;60.23;103370.97;5025743;28;20069;-61
2022/03/27 09:54:39;;;;;;;;;;;;;;;10.08;60.07;103371.06;5029485;28;20136;-60
2022/03/27 09:57:34;;;;;;;8.75;4.53;;;;;;;10.20;59.79;103368.53;5030238;28;19925;-59
2022/03/27 10:00:11;;;;;;;4.97;3.42;;;;;;;10.17;59.37;103367.66;5038074;28;20032;-61
2022/03/27 10:02:38;;;;;;;4.72;3.70;;;;;;;10.30;58.93;103363.38;5043116;28;20095;-61
2022/03/27 10:05:12;;;;;;;5.40;3.92;;;;;;;10.53;59.48;103366.19;5042667;28;20098;-61
2022/03/27 10:07:44;;;;;;;8.05;3.75;;;;;;;10.57;58.86;103367.09;5047723;28;20025;-55
2022/03/27 10:10:12;;;;;;;5.72;3.80;;;;;;;10.56;59.15;103360.94;5046677;28;20063;-56
2022/03/27 10:12:39;;;;;;;7.75;3.88;;;;;;;10.52;58.05;103359.16;5045288;28;20361;-60
2022/03/27 10:15:06;;;;;;;5.90;3.63;;;;;;;10.47;58.44;103358.22;5042859;28;20025;-55
2022/03/27 10:17:34;;;;;;;7.60;4.35;;;;;;;10.46;59.54;103351.19;5027503;28;20571;-58
2022/03/27 10:20:05;;;;;;;6.38;3.90;;;;;;;10.76;59.13;103354.91;5038541;28;20017;-56
2022/03/27 10:22:31;;;;;;;6.95;3.53;;;;;;;10.83;57.99;103348.78;5039119;28;20061;-58
2022/03/27 10:25:01;;;;;;;8.07;4.45;;;;;;;11.01;58.20;103351.53;5042208;28;20024;-55
2022/03/27 10:27:29;;;;;;;6.97;4.28;;;;;;;11.04;57.42;103349.78;5047302;28;20071;-59
2022/03/27 10:29:55;;;;;;;6.00;4.55;;;;;;;11.01;57.53;103341.84;5036654;28;20040;-58
2022/03/27 10:32:20;;;;;;;8.05;3.90;;;;;;;11.03;58.26;103350.66;5026202;28;20022;-59
2022/03/27 10:34:59;;;;;;;8.32;4.25;;;;;;;11.33;56.86;103337.56;5036682;28;20420;-59
2022/03/27 10:37:36;;;;;;;5.65;3.08;;;;;;;11.52;57.14;103346.41;5027334;28;20017;-61
2022/03/27 10:40:14;;;;;;;4.25;3.40;;;;;;;11.64;56.57;103342.91;5038708;28;20033;-58
2022/03/27 10:42:46;;;;;;;7.45;4.53;;;;;;;11.35;55.16;103331.41;5027718;28;20021;-57
2022/03/27 10:45:16;;;;;;;10.32;3.28;;;;;;;11.26;53.07;103336.69;5029426;28;20495;-59
2022/03/27 10:47:42;;;;;;;8.65;3.95;;;;;;;11.21;51.20;103327.84;5032851;28;20044;-55
2022/03/27 10:50:10;;;;;;;4.75;2.83;;;;;;;11.45;51.65;103328.81;5033323;28;20578;-57
2022/03/27 10:52:37;;;;;;;5.90;3.15;;;;;;;11.60;50.79;103323.56;5035849;28;20049;-56
2022/03/27 10:55:07;;;;;;;5.97;3.40;;;;;;;11.71;50.37;103326.19;5025891;28;20745;-56
2022/03/27 10:57:35;;;;;;;8.32;3.00;;;;;;;11.74;48.88;103322.72;5037306;28;20024;-58
2022/03/27 11:00:04;;;;;;;8.17;3.07;;;;;;;11.72;47.17;103330.63;5034892;28;20041;-58
2022/03/27 11:02:45;;;;;;;6.07;3.10;;;;;;;12.00;48.85;103327.09;5026620;28;20039;-59
2022/03/27 11:05:36;;;;;;;5.30;2.80;;;;;;;12.28;48.33;103324.47;5033644;28;20273;-60
2022/03/27 11:08:14;;;;;;;5.00;2.85;;;;;;;12.44;45.40;103322.72;5044947;28;20513;-59
2022/03/27 11:10:40;;;;;;;6.47;2.65;;;;;;;12.70;46.98;103323.53;5044755;28;20040;-61
2022/03/27 11:13:36;;;;;;;7.00;3.08;;;;;;;12.57;44.57;103315.63;5044661;28;20104;-59
2022/03/27 11:16:15;;;;;;;6.22;3.30;;;;;;;12.56;45.93;103312.97;5023839;28;20106;-58
2022/03/27 11:18:43;;;;;;;6.05;3.10;;;;;;;12.88;46.79;103312.88;5045145;28;20028;-62
2022/03/27 11:21:10;;;;;;;12.20;3.85;;;;;;;12.95;46.01;103305.81;5046185;28;20076;-60
2022/03/27 11:23:38;;;;;;;4.90;3.20;;;;;;;13.06;45.71;103311.03;5045324;28;20128;-59
2022/03/27 11:26:24;;;;;;;7.95;3.22;;;;;;;13.34;44.07;103305.56;5047247;28;20029;-60
2022/03/27 11:28:51;;;;;;;5.85;2.63;;;;;;;13.24;45.35;103304.75;5026653;28;20491;-59